createdAt,value
2023-05-03T00:00:23.814Z,573.05
2023-05-03T00:02:53.971Z,580.72
2023-05-03T00:05:22.500Z,589.03
2023-05-03T00:07:52.282Z,589.92
2023-05-03T00:10:20.796Z,583.28
2023-05-03T00:12:49.223Z,577.15
2023-05-03T00:15:17.708Z,572.50
2023-05-03T00:17:46.403Z,579.67
2023-05-03T00:20:15.325Z,577.35
2023-05-03T00:22:43.817Z,559.42
2023-05-03T00:25:13.737Z,570.80
2023-05-03T00:27:42.288Z,570.13
2023-05-03T00:30:11.825Z,558.33
2023-05-03T00:32:40.249Z,563.67
2023-05-03T00:35:09.372Z,570.65
2023-05-03T00:37:38.561Z,569.78
2023-05-03T00:40:08.921Z,557.45
2023-05-03T00:42:38.622Z,573.67
2023-05-03T00:45:08.089Z,565.47
2023-05-03T00:47:38.156Z,569.70
2023-05-03T00:50:07.993Z,552.92
2023-05-03T00:52:36.511Z,562.22
2023-05-03T00:55:05.247Z,573.03
2023-05-03T00:57:33.852Z,569.13
2023-05-03T01:00:04.039Z,573.80
2023-05-03T01:02:32.858Z,583.88
2023-05-03T01:05:02.557Z,574.97
2023-05-03T01:07:38.249Z,583.17
2023-05-03T01:10:13.948Z,570.05
2023-05-03T01:12:49.753Z,549.53
2023-05-03T01:15:26.423Z,573.47
2023-05-03T01:17:58.459Z,565.75
2023-05-03T01:20:28.663Z,554.70
2023-05-03T01:23:02.988Z,569.42
2023-05-03T01:25:32.912Z,571.33
2023-05-03T01:28:01.554Z,570.70
2023-05-03T01:30:30.646Z,545.50
2023-05-03T01:33:06.262Z,572.50
2023-05-03T01:35:41.997Z,549.47
2023-05-03T01:38:11.308Z,565.47
2023-05-03T01:40:44.629Z,573.70
2023-05-03T01:43:14.658Z,549.67
2023-05-03T01:45:44.156Z,548.78
2023-05-03T01:48:13.027Z,553.00
2023-05-03T01:50:41.468Z,568.30
2023-05-03T01:53:10.048Z,542.15
2023-05-03T01:55:38.490Z,554.70
2023-05-03T01:58:08.388Z,560.67
2023-05-03T02:00:36.824Z,555.88
2023-05-03T02:03:05.487Z,556.65
2023-05-03T02:05:33.887Z,551.30
2023-05-03T02:08:02.284Z,576.85
2023-05-03T02:10:30.747Z,562.78
2023-05-03T02:12:59.307Z,554.67
2023-05-03T02:15:29.235Z,574.55
2023-05-03T02:17:58.687Z,560.45
2023-05-03T02:20:27.172Z,562.70
2023-05-03T02:22:56.200Z,552.97
2023-05-03T02:25:26.364Z,552.45
2023-05-03T02:27:55.931Z,578.80
2023-05-03T02:30:24.400Z,565.25
2023-05-03T02:32:54.255Z,572.17
2023-05-03T02:35:22.666Z,572.60
2023-05-03T02:37:51.304Z,578.75
2023-05-03T02:40:19.759Z,575.08
2023-05-03T02:42:48.292Z,579.92
2023-05-03T02:45:31.093Z,577.65
2023-05-03T02:48:00.980Z,572.78
2023-05-03T02:50:29.394Z,583.35
2023-05-03T02:52:58.308Z,569.88
2023-05-03T02:55:26.840Z,583.95
2023-05-03T02:57:55.234Z,589.58
2023-05-03T03:00:23.849Z,586.72
2023-05-03T03:02:52.367Z,582.30
2023-05-03T03:05:22.334Z,575.30
2023-05-03T03:07:51.187Z,579.78
2023-05-03T03:10:19.776Z,592.03
2023-05-03T03:12:48.329Z,588.35
2023-05-03T03:15:16.705Z,604.80
2023-05-03T03:20:38.601Z,590.53
2023-05-03T03:23:07.228Z,603.55
2023-05-03T03:25:35.611Z,598.80
2023-05-03T03:28:07.312Z,602.45
2023-05-03T03:30:35.844Z,591.63
2023-05-03T03:33:04.394Z,608.95
2023-05-03T03:35:32.934Z,598.08
2023-05-03T03:38:02.816Z,590.58
2023-05-03T03:40:31.395Z,579.72
2023-05-03T03:42:59.806Z,582.83
2023-05-03T03:45:28.217Z,594.95
2023-05-03T03:47:58.053Z,602.50
2023-05-03T03:50:26.879Z,585.83
2023-05-03T03:52:55.422Z,595.22
2023-05-03T03:55:25.308Z,590.97
2023-05-03T03:57:53.819Z,610.00
2023-05-03T04:00:22.350Z,611.40
2023-05-03T04:02:50.866Z,593.70
2023-05-03T04:05:19.561Z,591.00
2023-05-03T04:13:08.901Z,610.33
2023-05-03T04:15:37.572Z,599.20
2023-05-03T04:18:06.830Z,618.53
2023-05-03T04:20:38.188Z,622.58
2023-05-03T04:23:07.172Z,614.40
2023-05-03T04:25:40.966Z,627.50
2023-05-03T04:28:11.189Z,622.67
2023-05-03T04:30:49.735Z,607.88
2023-05-03T04:33:18.488Z,622.25
2023-05-03T04:36:02.264Z,607.92
2023-05-03T04:38:36.757Z,608.03
2023-05-03T04:41:05.488Z,600.33
2023-05-03T04:43:36.299Z,595.70
2023-05-03T04:46:05.292Z,604.55
2023-05-03T04:48:36.370Z,609.65
2023-05-03T04:51:10.572Z,610.95
2023-05-03T05:19:14.915Z,685.00
2023-05-03T05:21:43.782Z,563.72
2023-05-03T05:24:13.168Z,632.53
2023-05-03T05:26:44.980Z,565.65
2023-05-03T05:29:13.890Z,554.70
2023-05-03T05:31:42.982Z,552.03
2023-05-03T05:34:15.336Z,538.63
2023-05-03T05:36:44.886Z,553.30
2023-05-03T05:39:13.932Z,640.33
2023-05-03T05:41:42.822Z,572.22
2023-05-03T05:44:14.404Z,712.00
2023-05-03T05:46:45.136Z,659.35
2023-05-03T05:49:15.654Z,551.25
2023-05-03T05:51:45.175Z,680.60
2023-05-03T05:54:14.006Z,580.83
2023-05-03T05:56:43.056Z,568.95
2023-05-03T05:59:12.487Z,638.72
2023-05-03T06:01:45.378Z,656.83
2023-05-03T06:04:25.849Z,631.40
2023-05-03T06:06:54.744Z,535.92
2023-05-03T06:09:24.976Z,597.53
2023-05-03T06:11:53.927Z,745.17
2023-05-03T06:14:23.525Z,500.73
2023-05-03T06:16:52.100Z,499.35
2023-05-03T06:19:24.471Z,499.35
2023-05-03T06:21:53.145Z,604.38
2023-05-03T06:24:21.889Z,480.52
2023-05-03T06:26:50.433Z,525.83
2023-05-03T06:29:21.609Z,636.53
2023-05-03T06:31:50.583Z,478.45
2023-05-03T06:34:22.683Z,534.35
2023-05-03T06:36:52.860Z,547.65
2023-05-03T06:39:21.963Z,537.40
2023-05-03T06:41:50.784Z,547.90
2023-05-03T06:44:19.784Z,556.33
2023-05-03T06:46:49.115Z,576.72
2023-05-03T06:49:17.851Z,607.20
2023-05-03T06:51:48.053Z,623.92
2023-05-03T06:54:16.540Z,548.05
2023-05-03T06:56:45.311Z,571.55
2023-05-03T06:59:13.979Z,567.00
2023-05-03T07:01:42.594Z,591.42
2023-05-03T07:04:14.284Z,625.92
2023-05-03T07:06:55.522Z,605.28
2023-05-03T07:12:01.008Z,602.53
2023-05-03T07:14:31.881Z,605.85
2023-05-03T07:17:00.362Z,667.45
2023-05-03T07:19:30.162Z,554.90
2023-05-03T07:22:01.178Z,582.80
2023-05-03T07:24:32.324Z,584.20
2023-05-03T07:27:04.322Z,636.55
2023-05-03T07:29:33.793Z,588.47
2023-05-03T07:32:05.965Z,609.33
2023-05-03T07:34:34.497Z,592.25
2023-05-03T07:37:03.166Z,623.38
2023-05-03T07:39:33.158Z,740.60
2023-05-03T07:42:02.294Z,628.38
2023-05-03T07:44:30.940Z,584.67
2023-05-03T07:47:02.101Z,601.85
2023-05-03T07:49:31.356Z,580.28
2023-05-03T07:52:03.199Z,607.83
2023-05-03T07:54:33.790Z,641.55
2023-05-03T07:57:11.268Z,716.45
2023-05-03T07:59:40.203Z,634.78
2023-05-03T08:02:11.677Z,690.55
2023-05-03T08:04:40.418Z,668.65
2023-05-03T08:07:09.779Z,641.47
2023-05-03T08:09:43.412Z,647.25
2023-05-03T08:12:12.038Z,619.53
2023-05-03T08:17:11.945Z,639.08
2023-05-03T08:19:40.927Z,638.10
2023-05-03T08:22:11.077Z,738.25
2023-05-03T08:24:40.781Z,623.38
2023-05-03T08:27:09.589Z,613.60
2023-05-03T08:29:38.648Z,690.90
2023-05-03T08:32:07.258Z,715.15
2023-05-03T08:34:36.385Z,630.88
2023-05-03T08:37:05.470Z,648.65
2023-05-03T08:39:34.505Z,741.08
2023-05-03T08:42:08.438Z,640.03
2023-05-03T08:44:39.528Z,641.58
2023-05-03T08:47:08.478Z,651.55
2023-05-03T08:49:38.181Z,618.13
2023-05-03T08:52:08.139Z,658.92
2023-05-03T08:54:36.578Z,635.35
2023-05-03T08:57:07.438Z,646.00
2023-05-03T08:59:36.081Z,696.17
2023-05-03T09:02:04.538Z,663.53
2023-05-03T09:04:35.696Z,712.53
2023-05-03T09:07:09.386Z,647.40
2023-05-03T09:09:38.079Z,757.90
2023-05-03T09:12:09.351Z,616.78
2023-05-03T09:14:47.190Z,678.72
2023-05-03T09:17:17.378Z,638.63
2023-05-03T09:19:52.775Z,639.78
2023-05-03T09:22:21.457Z,623.90
2023-05-03T09:24:56.223Z,607.28
2023-05-03T09:27:26.592Z,628.72
2023-05-03T09:29:55.550Z,623.10
2023-05-03T09:32:25.033Z,706.05
2023-05-03T09:34:53.637Z,637.20
2023-05-03T09:37:38.537Z,616.92
2023-05-03T09:40:10.215Z,651.10
2023-05-03T09:42:47.292Z,616.63
2023-05-03T09:45:25.324Z,698.45
2023-05-03T09:47:55.874Z,643.53
2023-05-03T09:50:24.739Z,665.63
2023-05-03T09:52:53.448Z,645.83
2023-05-03T09:55:22.110Z,608.92
2023-05-03T09:57:55.038Z,675.58
2023-05-03T10:00:25.334Z,648.28
2023-05-03T10:02:58.644Z,666.95
2023-05-03T10:05:28.381Z,627.45
2023-05-03T10:07:58.512Z,632.80
2023-05-03T10:10:27.029Z,647.70
2023-05-03T10:12:57.234Z,625.10
2023-05-03T10:15:27.161Z,611.60
2023-05-03T10:17:55.911Z,676.88
2023-05-03T10:20:28.820Z,668.70
2023-05-03T10:23:10.805Z,672.20
2023-05-03T10:25:40.659Z,975.42
2023-05-03T10:28:11.444Z,686.15
2023-05-03T10:30:40.823Z,659.72
2023-05-03T10:33:39.301Z,688.70
2023-05-03T10:36:10.605Z,659.88
2023-05-03T10:38:39.345Z,646.55
2023-05-03T10:41:07.842Z,642.10
2023-05-03T10:43:47.109Z,731.53
2023-05-03T10:46:36.485Z,601.25
2023-05-03T10:49:20.499Z,676.03
2023-05-03T10:51:49.242Z,593.17
2023-05-03T10:54:19.399Z,619.80
2023-05-03T10:56:51.911Z,643.38
2023-05-03T10:59:22.248Z,646.20
2023-05-03T11:01:52.400Z,721.08
2023-05-03T11:04:34.605Z,687.80
2023-05-03T11:07:04.508Z,657.80
2023-05-03T11:09:34.039Z,626.90
2023-05-03T11:12:06.726Z,674.80
2023-05-03T11:14:36.724Z,680.25
2023-05-03T11:17:05.185Z,631.70
2023-05-03T11:19:33.737Z,652.05
2023-05-03T11:22:03.100Z,628.58
2023-05-03T11:24:31.582Z,622.13
2023-05-03T11:27:00.238Z,630.75
2023-05-03T11:29:38.303Z,616.75
2023-05-03T11:32:10.593Z,645.22
2023-05-03T11:34:40.607Z,618.58
2023-05-03T11:37:10.925Z,627.70
2023-05-03T11:39:39.358Z,620.38
2023-05-03T11:42:08.348Z,601.17
2023-05-03T11:44:38.525Z,557.63
2023-05-03T11:47:09.490Z,600.65
2023-05-03T11:49:38.227Z,634.95
2023-05-03T11:52:06.713Z,612.65
2023-05-03T11:54:35.111Z,641.00
2023-05-03T11:57:14.314Z,587.50
2023-05-03T11:59:45.117Z,666.75
2023-05-03T12:02:15.123Z,727.78
2023-05-03T12:04:46.213Z,652.22
2023-05-03T12:07:18.640Z,615.88
2023-05-03T12:10:03.481Z,728.00
2023-05-03T12:12:40.670Z,558.20
2023-05-03T12:15:15.545Z,604.33
2023-05-03T12:17:48.987Z,506.77
2023-05-03T12:22:52.091Z,503.65
2023-05-03T12:25:21.697Z,528.15
2023-05-03T12:28:16.066Z,549.83
2023-05-03T12:30:46.066Z,561.55
2023-05-03T12:33:17.219Z,548.95
2023-05-03T12:35:48.047Z,591.63
2023-05-03T12:38:18.023Z,553.03
2023-05-03T12:40:47.183Z,559.30
2023-05-03T12:43:16.058Z,577.13
2023-05-03T12:45:52.351Z,596.95
2023-05-03T12:48:27.181Z,590.03
2023-05-03T12:51:13.227Z,550.45
2023-05-03T12:53:47.097Z,578.00
2023-05-03T12:56:16.318Z,603.88
2023-05-03T13:04:14.988Z,535.42
2023-05-03T13:06:47.036Z,498.25
2023-05-03T13:09:21.285Z,522.95
2023-05-03T13:11:53.199Z,582.58
2023-05-03T13:14:21.948Z,622.00
2023-05-03T13:16:52.006Z,498.42
2023-05-03T13:19:20.691Z,505.38
2023-05-03T13:21:49.853Z,554.28
2023-05-03T13:24:18.282Z,537.45
2023-05-03T13:26:47.013Z,481.92
2023-05-03T13:29:15.618Z,489.00
2023-05-03T13:31:44.180Z,500.60
2023-05-03T13:34:13.950Z,544.75
2023-05-03T13:36:42.381Z,545.63
2023-05-03T13:39:10.907Z,616.90
2023-05-03T13:41:42.193Z,541.55
2023-05-03T13:44:11.763Z,484.05
2023-05-03T13:46:41.505Z,479.85
2023-05-03T13:49:10.137Z,553.17
2023-05-03T13:51:40.169Z,488.75
2023-05-03T13:54:09.038Z,462.70
2023-05-03T13:56:38.006Z,462.67
2023-05-03T13:59:09.349Z,446.58
2023-05-03T14:01:38.480Z,452.40
2023-05-03T14:04:07.429Z,452.08
2023-05-03T14:06:37.706Z,442.55
2023-05-03T14:09:10.950Z,455.80
2023-05-03T14:11:42.042Z,516.95
2023-05-03T14:14:11.387Z,503.33
2023-05-03T14:16:42.013Z,507.27
2023-05-03T14:19:11.789Z,483.45
2023-05-03T14:21:41.871Z,461.38
2023-05-03T14:24:12.433Z,487.60
2023-05-03T14:26:41.167Z,477.90
2023-05-03T14:29:09.577Z,505.63
2023-05-03T14:31:38.020Z,562.30
2023-05-03T14:34:06.535Z,476.73
2023-05-03T14:36:38.861Z,421.15
2023-05-03T14:39:07.375Z,405.25
2023-05-03T14:41:37.284Z,426.27
2023-05-03T14:44:06.864Z,430.20
2023-05-03T14:46:35.435Z,436.65
2023-05-03T14:49:04.000Z,573.40
2023-05-03T14:51:32.875Z,446.70
2023-05-03T14:54:01.617Z,454.33
2023-05-03T14:56:31.742Z,401.65
2023-05-03T14:59:01.699Z,688.22
2023-05-03T15:01:30.161Z,420.40
2023-05-03T15:03:58.664Z,393.10
2023-05-03T15:06:30.653Z,424.63
2023-05-03T15:08:59.537Z,419.55
2023-05-03T15:11:28.599Z,520.00
2023-05-03T15:13:57.044Z,512.78
2023-05-03T15:16:27.000Z,450.98
2023-05-03T15:18:55.797Z,459.80
2023-05-03T15:21:24.293Z,451.48
2023-05-03T15:23:53.914Z,446.52
2023-05-03T15:26:24.333Z,452.25
2023-05-03T15:28:53.050Z,403.00
2023-05-03T15:31:21.699Z,502.42
2023-05-03T15:33:51.443Z,391.10
2023-05-03T15:36:19.743Z,490.38
2023-05-03T15:38:48.177Z,606.92
2023-05-03T15:41:16.752Z,400.50
2023-05-03T15:43:46.865Z,499.05
2023-05-03T15:46:15.919Z,447.95
2023-05-03T15:48:44.335Z,449.60
2023-05-03T15:51:14.021Z,542.13
2023-05-03T15:53:42.472Z,437.67
2023-05-03T15:56:11.387Z,548.58
2023-05-03T15:58:39.736Z,471.15
2023-05-03T16:01:08.224Z,479.55
2023-05-03T16:03:36.707Z,499.35
2023-05-03T16:06:06.896Z,433.48
2023-05-03T16:08:36.857Z,458.95
2023-05-03T16:11:05.487Z,415.63
2023-05-03T16:13:33.891Z,376.77
2023-05-03T16:16:03.165Z,467.48
2023-05-03T16:18:31.946Z,567.00
2023-05-03T16:21:01.393Z,382.95
2023-05-03T16:23:30.567Z,437.38
2023-05-03T16:26:01.081Z,491.33
2023-05-03T16:28:29.415Z,435.48
2023-05-03T16:30:57.768Z,443.10
2023-05-03T16:33:26.100Z,523.80
2023-05-03T16:35:54.482Z,390.20
2023-05-03T16:38:22.865Z,417.48
2023-05-03T16:40:51.262Z,422.15
2023-05-03T16:43:21.000Z,542.35
2023-05-03T16:45:57.402Z,452.25
2023-05-03T16:48:26.201Z,440.38
2023-05-03T16:51:00.044Z,571.78
2023-05-03T16:53:28.806Z,375.88
2023-05-03T16:55:57.730Z,418.95
2023-05-03T16:58:27.526Z,418.65
2023-05-03T17:00:56.117Z,481.25
2023-05-03T17:03:25.287Z,572.67
2023-05-03T17:05:54.116Z,446.33
2023-05-03T17:08:22.663Z,456.00
2023-05-03T17:10:51.222Z,459.67
2023-05-03T17:13:19.728Z,480.23
2023-05-03T17:15:49.675Z,512.33
2023-05-03T17:18:18.091Z,430.77
2023-05-03T17:20:46.432Z,633.95
2023-05-03T17:23:14.843Z,491.75
2023-05-03T17:25:44.428Z,463.30
2023-05-03T17:28:12.832Z,427.98
2023-05-03T17:30:41.217Z,488.38
2023-05-03T17:33:10.988Z,518.60
2023-05-03T17:35:39.475Z,477.27
2023-05-03T17:38:07.838Z,515.75
2023-05-03T17:40:38.350Z,519.53
2023-05-03T17:43:06.660Z,473.30
2023-05-03T17:45:35.041Z,514.00
2023-05-03T17:48:05.600Z,517.88
2023-05-03T17:50:35.577Z,645.42
2023-05-03T17:53:03.953Z,524.05
2023-05-03T17:55:34.885Z,569.00
2023-05-03T17:58:03.797Z,688.05
2023-05-03T18:00:43.121Z,554.08
2023-05-03T18:22:29.703Z,591.22
2023-05-03T18:27:30.096Z,587.78
2023-05-03T18:29:58.746Z,604.00
2023-05-03T18:32:27.248Z,636.75
2023-05-03T18:34:55.722Z,662.70
2023-05-03T18:37:30.532Z,670.70
2023-05-03T18:39:59.316Z,653.00
2023-05-03T18:42:27.784Z,687.40
2023-05-03T18:44:56.121Z,638.47
2023-05-03T19:20:01.474Z,643.22
2023-05-03T19:22:34.131Z,650.45
2023-05-03T19:25:04.783Z,579.13
2023-05-03T19:27:33.915Z,641.28
2023-05-03T19:30:13.448Z,589.53
2023-05-03T19:32:50.739Z,554.63
2023-05-03T19:35:45.960Z,561.80
2023-05-03T19:38:18.752Z,569.22
2023-05-03T19:41:02.771Z,578.38
2023-05-03T19:43:44.298Z,549.28
2023-05-03T19:46:35.098Z,569.38
2023-05-03T19:52:27.603Z,527.17
2023-05-03T19:54:57.831Z,554.20
2023-05-03T19:57:26.601Z,565.17
2023-05-03T19:59:55.563Z,562.33
2023-05-03T20:02:25.173Z,537.53
2023-05-03T20:04:53.868Z,555.45
2023-05-03T20:07:24.109Z,531.45
2023-05-03T20:09:52.779Z,548.97
2023-05-03T20:12:21.762Z,534.47
2023-05-03T20:14:50.301Z,559.25
2023-05-03T20:20:12.472Z,506.13
2023-05-03T20:22:44.369Z,553.90
2023-05-03T20:25:12.953Z,518.70
2023-05-03T20:27:41.446Z,540.22
2023-05-03T20:30:11.050Z,608.00
2023-05-03T20:32:40.433Z,537.80
2023-05-03T20:35:12.000Z,568.13
2023-05-03T20:37:41.919Z,572.45
2023-05-03T20:40:11.974Z,550.15
2023-05-03T20:42:40.450Z,491.83
2023-05-03T20:45:09.678Z,533.90
2023-05-03T20:47:38.061Z,546.78
2023-05-03T20:50:08.878Z,540.80
2023-05-03T20:52:37.724Z,528.33
2023-05-03T20:55:08.234Z,514.35
2023-05-03T20:57:42.486Z,582.92
2023-05-03T21:00:12.770Z,598.95
2023-05-03T21:02:41.668Z,580.10
2023-05-03T21:05:11.146Z,572.95
2023-05-03T21:07:39.922Z,550.90
2023-05-03T21:10:13.318Z,553.67
2023-05-03T21:12:42.221Z,651.30
2023-05-03T21:15:15.889Z,600.50
2023-05-03T21:17:46.270Z,603.23
2023-05-03T21:20:16.672Z,551.90
2023-05-03T21:22:45.703Z,589.15
2023-05-03T21:25:18.639Z,546.53
2023-05-03T21:27:47.282Z,552.78
2023-05-03T21:30:16.135Z,639.55
2023-05-03T21:32:45.768Z,522.80
2023-05-03T21:35:14.651Z,559.03
2023-05-03T21:37:44.116Z,593.03
2023-05-03T21:40:13.809Z,547.50
2023-05-03T21:42:44.215Z,653.30
2023-05-03T21:45:13.749Z,616.03
2023-05-03T21:47:42.296Z,543.72
2023-05-03T21:50:11.458Z,654.83
2023-05-03T21:52:40.581Z,585.42
2023-05-03T21:55:09.893Z,627.80
2023-05-03T21:57:38.552Z,605.60
2023-05-03T22:00:14.247Z,643.38
2023-05-03T22:02:42.901Z,623.38
2023-05-03T22:05:11.802Z,539.60
2023-05-03T22:07:40.390Z,577.20
2023-05-03T22:10:09.845Z,594.30
2023-05-03T22:12:38.483Z,641.92
2023-05-03T22:15:10.376Z,588.95
2023-05-03T22:17:39.122Z,528.97
2023-05-03T22:20:10.354Z,567.05
2023-05-03T22:22:38.758Z,568.72
2023-05-03T22:25:07.931Z,558.00
2023-05-03T22:27:37.280Z,549.25
2023-05-03T22:30:08.963Z,626.83
2023-05-03T22:32:37.431Z,505.83
2023-05-03T22:35:06.368Z,550.05
2023-05-03T22:37:35.080Z,537.95
2023-05-03T22:40:04.399Z,532.75
2023-05-03T22:42:33.158Z,652.20
2023-05-03T22:45:01.611Z,519.70
2023-05-03T22:47:31.507Z,631.33
2023-05-03T22:49:59.955Z,616.83
2023-05-03T22:52:28.495Z,556.40
2023-05-03T22:54:57.683Z,596.70
2023-05-03T22:57:26.167Z,536.05
2023-05-03T22:59:54.536Z,593.08
2023-05-03T23:02:23.063Z,574.65
2023-05-03T23:04:53.017Z,593.50
2023-05-03T23:07:21.525Z,561.70
2023-05-03T23:09:50.254Z,620.08
2023-05-03T23:12:18.655Z,557.22
2023-05-03T23:14:47.065Z,621.30
2023-05-03T23:17:16.117Z,583.70
2023-05-03T23:19:44.548Z,602.72
2023-05-03T23:22:14.267Z,551.95
2023-05-03T23:24:42.643Z,583.75
2023-05-03T23:27:12.512Z,613.40
2023-05-03T23:29:41.466Z,601.53
2023-05-03T23:32:10.554Z,585.47
2023-05-03T23:34:39.502Z,565.88
2023-05-03T23:37:07.853Z,567.42
2023-05-03T23:39:37.870Z,560.15
2023-05-03T23:42:06.357Z,566.47
2023-05-03T23:44:50.511Z,555.22
2023-05-03T23:47:22.682Z,545.63
2023-05-03T23:49:51.448Z,568.67
2023-05-03T23:52:20.411Z,564.88
2023-05-03T23:54:50.408Z,567.67
2023-05-03T23:57:18.882Z,562.63
2023-05-03T23:59:47.337Z,569.78
